sensor_id;sensor_type;location;lat;lon;timestamp;P1;durP1;ratioP1;P2;durP2;ratioP2
68108;SDS011;54893;49.864;19.084;2023-04-24T00:02:31;8.83;;;5.10;;
68108;SDS011;54893;49.864;19.084;2023-04-24T00:07:32;9.10;;;4.83;;
68108;SDS011;54893;49.864;19.084;2023-04-24T00:12:33;8.37;;;4.53;;
68108;SDS011;54893;49.864;19.084;2023-04-24T00:17:33;8.43;;;4.80;;
68108;SDS011;54893;49.864;19.084;2023-04-24T00:22:34;9.20;;;4.40;;
68108;SDS011;54893;49.864;19.084;2023-04-24T00:27:34;8.90;;;4.70;;
68108;SDS011;54893;49.864;19.084;2023-04-24T00:32:37;8.13;;;4.57;;
68108;SDS011;54893;49.864;19.084;2023-04-24T00:37:37;8.53;;;4.37;;
68108;SDS011;54893;49.864;19.084;2023-04-24T00:42:38;9.30;;;4.47;;
68108;SDS011;54893;49.864;19.084;2023-04-24T00:47:40;10.23;;;4.35;;
68108;SDS011;54893;49.864;19.084;2023-04-24T00:52:42;8.32;;;4.72;;
68108;SDS011;54893;49.864;19.084;2023-04-24T00:57:42;8.73;;;4.37;;
68108;SDS011;54893;49.864;19.084;2023-04-24T01:02:43;8.53;;;4.33;;
68108;SDS011;54893;49.864;19.084;2023-04-24T01:07:45;8.55;;;5.05;;
68108;SDS011;54893;49.864;19.084;2023-04-24T01:12:47;8.77;;;4.43;;
68108;SDS011;54893;49.864;19.084;2023-04-24T01:17:47;8.37;;;4.40;;
68108;SDS011;54893;49.864;19.084;2023-04-24T01:22:48;9.57;;;4.77;;
68108;SDS011;54893;49.864;19.084;2023-04-24T01:27:48;9.97;;;4.40;;
68108;SDS011;54893;49.864;19.084;2023-04-24T01:32:48;7.82;;;4.20;;
68108;SDS011;54893;49.864;19.084;2023-04-24T01:37:49;7.43;;;4.10;;
68108;SDS011;54893;49.864;19.084;2023-04-24T01:42:50;8.70;;;4.20;;
68108;SDS011;54893;49.864;19.084;2023-04-24T01:47:50;7.97;;;4.50;;
68108;SDS011;54893;49.864;19.084;2023-04-24T01:52:51;8.37;;;4.33;;
68108;SDS011;54893;49.864;19.084;2023-04-24T01:57:55;7.88;;;4.28;;
68108;SDS011;54893;49.864;19.084;2023-04-24T02:02:56;9.10;;;4.60;;
68108;SDS011;54893;49.864;19.084;2023-04-24T02:07:56;8.60;;;4.50;;
68108;SDS011;54893;49.864;19.084;2023-04-24T02:12:57;8.20;;;4.45;;
68108;SDS011;54893;49.864;19.084;2023-04-24T02:17:59;11.15;;;4.60;;
68108;SDS011;54893;49.864;19.084;2023-04-24T02:22:59;10.23;;;4.40;;
68108;SDS011;54893;49.864;19.084;2023-04-24T02:28:00;8.18;;;4.40;;
68108;SDS011;54893;49.864;19.084;2023-04-24T02:33:00;9.67;;;3.87;;
68108;SDS011;54893;49.864;19.084;2023-04-24T02:38:01;13.23;;;4.33;;
68108;SDS011;54893;49.864;19.084;2023-04-24T02:43:01;12.10;;;4.17;;
68108;SDS011;54893;49.864;19.084;2023-04-24T02:48:01;8.77;;;4.90;;
68108;SDS011;54893;49.864;19.084;2023-04-24T02:53:02;10.47;;;4.30;;
68108;SDS011;54893;49.864;19.084;2023-04-24T02:58:03;7.87;;;4.13;;
68108;SDS011;54893;49.864;19.084;2023-04-24T03:03:03;9.03;;;4.57;;
68108;SDS011;54893;49.864;19.084;2023-04-24T03:08:03;7.73;;;4.13;;
68108;SDS011;54893;49.864;19.084;2023-04-24T03:13:04;8.95;;;4.75;;
68108;SDS011;54893;49.864;19.084;2023-04-24T03:18:05;11.10;;;4.63;;
68108;SDS011;54893;49.864;19.084;2023-04-24T03:23:05;8.57;;;4.57;;
68108;SDS011;54893;49.864;19.084;2023-04-24T03:28:05;7.67;;;4.40;;
68108;SDS011;54893;49.864;19.084;2023-04-24T03:33:06;7.23;;;4.63;;
68108;SDS011;54893;49.864;19.084;2023-04-24T03:38:06;7.95;;;3.97;;
68108;SDS011;54893;49.864;19.084;2023-04-24T03:43:06;9.07;;;4.53;;
68108;SDS011;54893;49.864;19.084;2023-04-24T03:48:07;7.30;;;4.70;;
68108;SDS011;54893;49.864;19.084;2023-04-24T03:53:07;8.67;;;4.73;;
68108;SDS011;54893;49.864;19.084;2023-04-24T03:58:08;7.77;;;4.80;;
68108;SDS011;54893;49.864;19.084;2023-04-24T04:03:08;9.75;;;4.90;;
68108;SDS011;54893;49.864;19.084;2023-04-24T04:08:08;8.73;;;4.90;;
68108;SDS011;54893;49.864;19.084;2023-04-24T04:13:09;13.23;;;4.67;;
68108;SDS011;54893;49.864;19.084;2023-04-24T04:18:09;8.68;;;4.10;;
68108;SDS011;54893;49.864;19.084;2023-04-24T04:23:10;9.30;;;4.57;;
68108;SDS011;54893;49.864;19.084;2023-04-24T04:28:10;7.77;;;4.77;;
68108;SDS011;54893;49.864;19.084;2023-04-24T04:33:10;18.17;;;5.13;;
68108;SDS011;54893;49.864;19.084;2023-04-24T04:38:11;8.57;;;4.33;;
68108;SDS011;54893;49.864;19.084;2023-04-24T04:43:11;8.90;;;4.50;;
68108;SDS011;54893;49.864;19.084;2023-04-24T04:48:13;7.32;;;4.15;;
68108;SDS011;54893;49.864;19.084;2023-04-24T04:53:14;8.48;;;4.80;;
68108;SDS011;54893;49.864;19.084;2023-04-24T04:58:14;9.13;;;4.90;;
68108;SDS011;54893;49.864;19.084;2023-04-24T05:03:15;8.83;;;3.80;;
68108;SDS011;54893;49.864;19.084;2023-04-24T05:08:15;8.70;;;4.80;;
68108;SDS011;54893;49.864;19.084;2023-04-24T05:13:15;9.55;;;4.75;;
68108;SDS011;54893;49.864;19.084;2023-04-24T05:18:16;11.83;;;4.90;;
68108;SDS011;54893;49.864;19.084;2023-04-24T05:23:16;8.23;;;4.60;;
68108;SDS011;54893;49.864;19.084;2023-04-24T05:28:16;8.70;;;4.33;;
68108;SDS011;54893;49.864;19.084;2023-04-24T05:33:17;7.47;;;4.67;;
68108;SDS011;54893;49.864;19.084;2023-04-24T05:38:17;9.13;;;4.70;;
68108;SDS011;54893;49.864;19.084;2023-04-24T05:43:19;7.23;;;5.00;;
68108;SDS011;54893;49.864;19.084;2023-04-24T05:48:19;11.80;;;5.10;;
68108;SDS011;54893;49.864;19.084;2023-04-24T05:53:21;7.88;;;4.68;;
68108;SDS011;54893;49.864;19.084;2023-04-24T05:58:22;7.60;;;4.97;;
68108;SDS011;54893;49.864;19.084;2023-04-24T06:03:22;8.23;;;4.57;;
68108;SDS011;54893;49.864;19.084;2023-04-24T06:08:22;9.10;;;4.97;;
68108;SDS011;54893;49.864;19.084;2023-04-24T06:13:23;11.00;;;4.97;;
68108;SDS011;54893;49.864;19.084;2023-04-24T06:18:23;10.43;;;5.20;;
68108;SDS011;54893;49.864;19.084;2023-04-24T06:23:24;8.33;;;4.97;;
68108;SDS011;54893;49.864;19.084;2023-04-24T06:28:24;14.80;;;5.83;;
68108;SDS011;54893;49.864;19.084;2023-04-24T06:33:25;10.17;;;5.10;;
68108;SDS011;54893;49.864;19.084;2023-04-24T06:38:25;9.30;;;5.57;;
68108;SDS011;54893;49.864;19.084;2023-04-24T06:43:25;8.23;;;5.23;;
68108;SDS011;54893;49.864;19.084;2023-04-24T06:48:26;8.00;;;5.27;;
68108;SDS011;54893;49.864;19.084;2023-04-24T06:53:26;9.23;;;5.23;;
68108;SDS011;54893;49.864;19.084;2023-04-24T06:58:27;9.70;;;5.80;;
68108;SDS011;54893;49.864;19.084;2023-04-24T07:03:27;8.07;;;5.40;;
68108;SDS011;54893;49.864;19.084;2023-04-24T07:08:28;8.70;;;5.43;;
68108;SDS011;54893;49.864;19.084;2023-04-24T07:13:30;8.20;;;5.47;;
68108;SDS011;54893;49.864;19.084;2023-04-24T07:18:30;8.67;;;5.90;;
68108;SDS011;54893;49.864;19.084;2023-04-24T07:23:31;45.30;;;7.87;;
68108;SDS011;54893;49.864;19.084;2023-04-24T07:28:31;13.30;;;5.85;;
68108;SDS011;54893;49.864;19.084;2023-04-24T07:33:31;13.50;;;6.20;;
68108;SDS011;54893;49.864;19.084;2023-04-24T07:38:31;13.03;;;6.20;;
68108;SDS011;54893;49.864;19.084;2023-04-24T07:43:32;9.00;;;5.93;;
68108;SDS011;54893;49.864;19.084;2023-04-24T07:48:32;10.17;;;5.80;;
68108;SDS011;54893;49.864;19.084;2023-04-24T07:53:33;9.10;;;5.77;;
68108;SDS011;54893;49.864;19.084;2023-04-24T07:58:33;13.60;;;6.07;;
68108;SDS011;54893;49.864;19.084;2023-04-24T08:03:34;8.27;;;5.40;;
68108;SDS011;54893;49.864;19.084;2023-04-24T08:08:35;9.85;;;5.60;;
68108;SDS011;54893;49.864;19.084;2023-04-24T08:13:35;8.67;;;5.00;;
68108;SDS011;54893;49.864;19.084;2023-04-24T08:18:35;9.97;;;5.27;;
68108;SDS011;54893;49.864;19.084;2023-04-24T08:23:36;7.97;;;5.20;;
68108;SDS011;54893;49.864;19.084;2023-04-24T08:28:36;9.47;;;4.97;;
68108;SDS011;54893;49.864;19.084;2023-04-24T08:33:37;7.80;;;4.50;;
68108;SDS011;54893;49.864;19.084;2023-04-24T08:38:37;7.10;;;5.05;;
68108;SDS011;54893;49.864;19.084;2023-04-24T08:43:38;9.33;;;5.20;;
68108;SDS011;54893;49.864;19.084;2023-04-24T08:48:39;8.30;;;5.05;;
68108;SDS011;54893;49.864;19.084;2023-04-24T08:53:40;173.38;;;15.43;;
68108;SDS011;54893;49.864;19.084;2023-04-24T08:58:40;18.17;;;6.00;;
68108;SDS011;54893;49.864;19.084;2023-04-24T09:03:41;8.20;;;4.70;;
68108;SDS011;54893;49.864;19.084;2023-04-24T09:08:42;9.40;;;4.60;;
68108;SDS011;54893;49.864;19.084;2023-04-24T09:13:45;7.82;;;5.38;;
68108;SDS011;54893;49.864;19.084;2023-04-24T09:18:46;13.03;;;5.77;;
68108;SDS011;54893;49.864;19.084;2023-04-24T09:23:46;9.00;;;6.10;;
68108;SDS011;54893;49.864;19.084;2023-04-24T09:28:46;11.23;;;6.83;;
68108;SDS011;54893;49.864;19.084;2023-04-24T09:33:54;12.70;;;6.73;;
68108;SDS011;54893;49.864;19.084;2023-04-24T09:38:58;12.95;;;5.90;;
68108;SDS011;54893;49.864;19.084;2023-04-24T09:44:12;12.70;;;7.20;;
68108;SDS011;54893;49.864;19.084;2023-04-24T09:49:14;13.73;;;7.10;;
68108;SDS011;54893;49.864;19.084;2023-04-24T09:54:17;10.27;;;6.40;;
68108;SDS011;54893;49.864;19.084;2023-04-24T09:59:20;9.20;;;5.43;;
68108;SDS011;54893;49.864;19.084;2023-04-24T10:04:22;11.68;;;5.95;;
68108;SDS011;54893;49.864;19.084;2023-04-24T10:09:25;10.83;;;7.00;;
68108;SDS011;54893;49.864;19.084;2023-04-24T10:14:26;11.15;;;6.43;;
68108;SDS011;54893;49.864;19.084;2023-04-24T10:19:26;10.03;;;6.63;;
68108;SDS011;54893;49.864;19.084;2023-04-24T10:24:27;14.03;;;6.80;;
68108;SDS011;54893;49.864;19.084;2023-04-24T10:29:28;13.05;;;6.55;;
68108;SDS011;54893;49.864;19.084;2023-04-24T10:34:31;11.73;;;6.83;;
68108;SDS011;54893;49.864;19.084;2023-04-24T10:39:31;9.30;;;6.27;;
68108;SDS011;54893;49.864;19.084;2023-04-24T10:44:36;8.25;;;5.88;;
68108;SDS011;54893;49.864;19.084;2023-04-24T10:49:36;14.03;;;6.03;;
68108;SDS011;54893;49.864;19.084;2023-04-24T10:59:40;14.18;;;6.10;;
68108;SDS011;54893;49.864;19.084;2023-04-24T11:04:41;10.53;;;5.67;;
68108;SDS011;54893;49.864;19.084;2023-04-24T11:09:42;10.18;;;6.75;;
68108;SDS011;54893;49.864;19.084;2023-04-24T11:20:10;10.82;;;6.70;;
68108;SDS011;54893;49.864;19.084;2023-04-24T11:25:11;11.40;;;6.47;;
68108;SDS011;54893;49.864;19.084;2023-04-24T11:30:12;11.03;;;6.23;;
68108;SDS011;54893;49.864;19.084;2023-04-24T11:35:18;13.85;;;7.75;;
68108;SDS011;54893;49.864;19.084;2023-04-24T11:40:22;11.27;;;6.93;;
68108;SDS011;54893;49.864;19.084;2023-04-24T11:45:23;14.73;;;7.25;;
68108;SDS011;54893;49.864;19.084;2023-04-24T11:50:26;12.85;;;7.75;;
68108;SDS011;54893;49.864;19.084;2023-04-24T11:55:28;12.82;;;7.03;;
68108;SDS011;54893;49.864;19.084;2023-04-24T12:00:30;13.80;;;7.90;;
68108;SDS011;54893;49.864;19.084;2023-04-24T12:05:33;11.23;;;7.60;;
68108;SDS011;54893;49.864;19.084;2023-04-24T12:10:34;16.52;;;7.18;;
68108;SDS011;54893;49.864;19.084;2023-04-24T12:15:35;13.87;;;7.37;;
68108;SDS011;54893;49.864;19.084;2023-04-24T12:20:40;12.10;;;6.43;;
68108;SDS011;54893;49.864;19.084;2023-04-24T12:25:40;14.50;;;8.27;;
68108;SDS011;54893;49.864;19.084;2023-04-24T12:30:45;12.40;;;7.40;;
68108;SDS011;54893;49.864;19.084;2023-04-24T12:35:51;13.43;;;7.43;;
68108;SDS011;54893;49.864;19.084;2023-04-24T12:41:08;11.38;;;6.65;;
68108;SDS011;54893;49.864;19.084;2023-04-24T12:46:10;12.93;;;7.55;;
68108;SDS011;54893;49.864;19.084;2023-04-24T12:51:10;17.95;;;7.65;;
68108;SDS011;54893;49.864;19.084;2023-04-24T12:56:11;13.03;;;7.33;;
68108;SDS011;54893;49.864;19.084;2023-04-24T13:01:11;11.33;;;6.53;;
68108;SDS011;54893;49.864;19.084;2023-04-24T13:06:11;13.97;;;7.80;;
68108;SDS011;54893;49.864;19.084;2023-04-24T13:11:12;10.63;;;7.47;;
68108;SDS011;54893;49.864;19.084;2023-04-24T13:16:12;10.37;;;6.40;;
68108;SDS011;54893;49.864;19.084;2023-04-24T13:21:12;9.97;;;6.33;;
68108;SDS011;54893;49.864;19.084;2023-04-24T13:26:13;12.27;;;7.10;;
68108;SDS011;54893;49.864;19.084;2023-04-24T13:31:13;11.70;;;6.87;;
68108;SDS011;54893;49.864;19.084;2023-04-24T13:36:13;11.03;;;6.37;;
68108;SDS011;54893;49.864;19.084;2023-04-24T13:41:14;9.83;;;5.63;;
68108;SDS011;54893;49.864;19.084;2023-04-24T13:46:15;9.43;;;5.83;;
68108;SDS011;54893;49.864;19.084;2023-04-24T13:51:16;9.70;;;5.63;;
68108;SDS011;54893;49.864;19.084;2023-04-24T13:56:16;8.93;;;5.17;;
68108;SDS011;54893;49.864;19.084;2023-04-24T14:01:17;10.57;;;5.87;;
68108;SDS011;54893;49.864;19.084;2023-04-24T14:06:18;10.20;;;5.87;;
68108;SDS011;54893;49.864;19.084;2023-04-24T14:11:19;12.60;;;6.50;;
68108;SDS011;54893;49.864;19.084;2023-04-24T14:16:19;9.90;;;6.00;;
68108;SDS011;54893;49.864;19.084;2023-04-24T14:21:20;8.33;;;5.07;;
68108;SDS011;54893;49.864;19.084;2023-04-24T14:26:20;10.07;;;6.10;;
68108;SDS011;54893;49.864;19.084;2023-04-24T14:31:21;9.63;;;5.72;;
68108;SDS011;54893;49.864;19.084;2023-04-24T14:36:22;8.60;;;4.80;;
68108;SDS011;54893;49.864;19.084;2023-04-24T14:41:22;8.17;;;4.97;;
68108;SDS011;54893;49.864;19.084;2023-04-24T14:46:22;8.83;;;5.43;;
68108;SDS011;54893;49.864;19.084;2023-04-24T14:51:23;10.17;;;5.60;;
68108;SDS011;54893;49.864;19.084;2023-04-24T14:56:23;8.60;;;5.27;;
68108;SDS011;54893;49.864;19.084;2023-04-24T15:01:23;8.63;;;5.20;;
68108;SDS011;54893;49.864;19.084;2023-04-24T15:06:24;8.07;;;4.80;;
68108;SDS011;54893;49.864;19.084;2023-04-24T15:11:25;7.67;;;4.70;;
68108;SDS011;54893;49.864;19.084;2023-04-24T15:16:25;7.38;;;4.47;;
68108;SDS011;54893;49.864;19.084;2023-04-24T15:21:26;8.53;;;5.00;;
68108;SDS011;54893;49.864;19.084;2023-04-24T15:26:26;9.77;;;5.70;;
68108;SDS011;54893;49.864;19.084;2023-04-24T15:31:27;10.70;;;5.30;;
68108;SDS011;54893;49.864;19.084;2023-04-24T15:36:27;8.30;;;4.95;;
68108;SDS011;54893;49.864;19.084;2023-04-24T15:41:27;11.50;;;5.73;;
68108;SDS011;54893;49.864;19.084;2023-04-24T15:46:28;10.83;;;6.30;;
68108;SDS011;54893;49.864;19.084;2023-04-24T15:51:28;10.45;;;6.70;;
68108;SDS011;54893;49.864;19.084;2023-04-24T15:56:29;12.53;;;7.37;;
68108;SDS011;54893;49.864;19.084;2023-04-24T16:01:29;13.25;;;8.20;;
68108;SDS011;54893;49.864;19.084;2023-04-24T16:06:30;13.07;;;7.50;;
68108;SDS011;54893;49.864;19.084;2023-04-24T16:11:31;14.70;;;7.60;;
68108;SDS011;54893;49.864;19.084;2023-04-24T16:16:32;12.40;;;7.32;;
68108;SDS011;54893;49.864;19.084;2023-04-24T16:21:32;12.40;;;7.60;;
68108;SDS011;54893;49.864;19.084;2023-04-24T16:26:33;12.73;;;7.20;;
68108;SDS011;54893;49.864;19.084;2023-04-24T16:31:33;13.63;;;7.67;;
68108;SDS011;54893;49.864;19.084;2023-04-24T16:36:34;13.27;;;7.63;;
68108;SDS011;54893;49.864;19.084;2023-04-24T16:41:35;13.17;;;9.00;;
68108;SDS011;54893;49.864;19.084;2023-04-24T16:46:35;16.47;;;9.37;;
68108;SDS011;54893;49.864;19.084;2023-04-24T16:51:36;16.98;;;9.63;;
68108;SDS011;54893;49.864;19.084;2023-04-24T16:56:37;15.33;;;9.33;;
68108;SDS011;54893;49.864;19.084;2023-04-24T17:01:37;18.80;;;9.70;;
68108;SDS011;54893;49.864;19.084;2023-04-24T17:06:37;15.77;;;8.93;;
68108;SDS011;54893;49.864;19.084;2023-04-24T17:11:38;20.10;;;9.83;;
68108;SDS011;54893;49.864;19.084;2023-04-24T17:16:38;17.17;;;9.70;;
68108;SDS011;54893;49.864;19.084;2023-04-24T17:21:40;24.77;;;12.40;;
68108;SDS011;54893;49.864;19.084;2023-04-24T17:26:40;21.73;;;12.10;;
68108;SDS011;54893;49.864;19.084;2023-04-24T17:31:40;20.03;;;11.50;;
68108;SDS011;54893;49.864;19.084;2023-04-24T17:36:41;20.93;;;10.90;;
68108;SDS011;54893;49.864;19.084;2023-04-24T17:41:41;20.00;;;11.30;;
68108;SDS011;54893;49.864;19.084;2023-04-24T17:46:41;24.77;;;12.13;;
68108;SDS011;54893;49.864;19.084;2023-04-24T17:51:42;38.73;;;19.77;;
68108;SDS011;54893;49.864;19.084;2023-04-24T17:56:42;35.30;;;17.85;;
68108;SDS011;54893;49.864;19.084;2023-04-24T18:01:42;38.47;;;19.43;;
68108;SDS011;54893;49.864;19.084;2023-04-24T18:06:43;40.23;;;19.63;;
68108;SDS011;54893;49.864;19.084;2023-04-24T18:11:43;43.80;;;21.10;;
68108;SDS011;54893;49.864;19.084;2023-04-24T18:16:45;47.33;;;22.37;;
68108;SDS011;54893;49.864;19.084;2023-04-24T18:21:45;45.97;;;22.90;;
68108;SDS011;54893;49.864;19.084;2023-04-24T18:26:46;44.17;;;21.30;;
68108;SDS011;54893;49.864;19.084;2023-04-24T18:31:46;40.22;;;20.33;;
68108;SDS011;54893;49.864;19.084;2023-04-24T18:36:47;43.03;;;20.67;;
68108;SDS011;54893;49.864;19.084;2023-04-24T18:41:47;41.58;;;19.77;;
68108;SDS011;54893;49.864;19.084;2023-04-24T18:46:47;42.33;;;21.77;;
68108;SDS011;54893;49.864;19.084;2023-04-24T18:51:48;40.45;;;20.35;;
68108;SDS011;54893;49.864;19.084;2023-04-24T18:56:48;49.40;;;26.02;;
68108;SDS011;54893;49.864;19.084;2023-04-24T19:01:50;50.63;;;27.90;;
68108;SDS011;54893;49.864;19.084;2023-04-24T19:06:50;62.73;;;31.87;;
68108;SDS011;54893;49.864;19.084;2023-04-24T19:11:51;60.93;;;32.43;;
68108;SDS011;54893;49.864;19.084;2023-04-24T19:16:51;55.67;;;28.83;;
68108;SDS011;54893;49.864;19.084;2023-04-24T19:21:51;66.03;;;33.80;;
68108;SDS011;54893;49.864;19.084;2023-04-24T19:26:52;63.07;;;34.43;;
68108;SDS011;54893;49.864;19.084;2023-04-24T19:31:52;60.83;;;29.33;;
68108;SDS011;54893;49.864;19.084;2023-04-24T19:36:54;53.30;;;27.52;;
68108;SDS011;54893;49.864;19.084;2023-04-24T19:41:54;52.57;;;24.60;;
68108;SDS011;54893;49.864;19.084;2023-04-24T19:46:56;53.47;;;25.73;;
68108;SDS011;54893;49.864;19.084;2023-04-24T19:51:56;55.40;;;26.03;;
68108;SDS011;54893;49.864;19.084;2023-04-24T19:56:56;53.00;;;26.40;;
68108;SDS011;54893;49.864;19.084;2023-04-24T20:01:57;63.33;;;31.17;;
68108;SDS011;54893;49.864;19.084;2023-04-24T20:06:57;58.87;;;28.17;;
68108;SDS011;54893;49.864;19.084;2023-04-24T20:11:57;53.57;;;25.03;;
68108;SDS011;54893;49.864;19.084;2023-04-24T20:16:58;53.37;;;25.90;;
68108;SDS011;54893;49.864;19.084;2023-04-24T20:21:58;52.22;;;27.67;;
68108;SDS011;54893;49.864;19.084;2023-04-24T20:26:58;42.83;;;21.30;;
68108;SDS011;54893;49.864;19.084;2023-04-24T20:32:00;43.38;;;22.23;;
68108;SDS011;54893;49.864;19.084;2023-04-24T20:37:01;48.80;;;23.50;;
68108;SDS011;54893;49.864;19.084;2023-04-24T20:42:03;54.03;;;28.20;;
68108;SDS011;54893;49.864;19.084;2023-04-24T20:47:04;62.22;;;29.25;;
68108;SDS011;54893;49.864;19.084;2023-04-24T20:52:05;58.27;;;26.57;;
68108;SDS011;54893;49.864;19.084;2023-04-24T20:57:07;51.78;;;24.30;;
68108;SDS011;54893;49.864;19.084;2023-04-24T21:02:07;50.00;;;23.95;;
68108;SDS011;54893;49.864;19.084;2023-04-24T21:07:08;49.03;;;24.23;;
68108;SDS011;54893;49.864;19.084;2023-04-24T21:12:09;47.63;;;23.83;;
68108;SDS011;54893;49.864;19.084;2023-04-24T21:17:09;50.23;;;25.50;;
68108;SDS011;54893;49.864;19.084;2023-04-24T21:22:10;45.93;;;22.77;;
68108;SDS011;54893;49.864;19.084;2023-04-24T21:27:10;45.20;;;22.43;;
68108;SDS011;54893;49.864;19.084;2023-04-24T21:32:10;49.60;;;27.33;;
68108;SDS011;54893;49.864;19.084;2023-04-24T21:37:11;46.77;;;22.67;;
68108;SDS011;54893;49.864;19.084;2023-04-24T21:42:12;66.32;;;31.65;;
68108;SDS011;54893;49.864;19.084;2023-04-24T21:47:12;48.47;;;24.20;;
68108;SDS011;54893;49.864;19.084;2023-04-24T21:52:13;50.37;;;28.27;;
68108;SDS011;54893;49.864;19.084;2023-04-24T21:57:13;46.40;;;22.23;;
68108;SDS011;54893;49.864;19.084;2023-04-24T22:02:14;52.30;;;25.77;;
68108;SDS011;54893;49.864;19.084;2023-04-24T22:07:14;62.00;;;29.20;;
68108;SDS011;54893;49.864;19.084;2023-04-24T22:12:15;54.43;;;27.13;;
68108;SDS011;54893;49.864;19.084;2023-04-24T22:17:16;63.88;;;29.63;;
68108;SDS011;54893;49.864;19.084;2023-04-24T22:22:16;52.65;;;25.90;;
68108;SDS011;54893;49.864;19.084;2023-04-24T22:27:17;50.23;;;24.10;;
68108;SDS011;54893;49.864;19.084;2023-04-24T22:32:17;40.60;;;17.97;;
68108;SDS011;54893;49.864;19.084;2023-04-24T22:37:17;41.07;;;20.27;;
68108;SDS011;54893;49.864;19.084;2023-04-24T22:42:18;40.67;;;18.20;;
68108;SDS011;54893;49.864;19.084;2023-04-24T22:47:18;47.30;;;24.53;;
68108;SDS011;54893;49.864;19.084;2023-04-24T22:52:19;51.93;;;20.87;;
68108;SDS011;54893;49.864;19.084;2023-04-24T22:57:19;59.20;;;24.33;;
68108;SDS011;54893;49.864;19.084;2023-04-24T23:02:21;50.65;;;22.35;;
68108;SDS011;54893;49.864;19.084;2023-04-24T23:07:22;51.38;;;20.20;;
68108;SDS011;54893;49.864;19.084;2023-04-24T23:12:22;50.67;;;22.53;;
68108;SDS011;54893;49.864;19.084;2023-04-24T23:17:22;50.23;;;21.60;;
68108;SDS011;54893;49.864;19.084;2023-04-24T23:22:23;52.27;;;23.10;;
68108;SDS011;54893;49.864;19.084;2023-04-24T23:27:23;51.43;;;22.30;;
68108;SDS011;54893;49.864;19.084;2023-04-24T23:32:23;48.70;;;21.43;;
68108;SDS011;54893;49.864;19.084;2023-04-24T23:37:24;46.97;;;20.60;;
68108;SDS011;54893;49.864;19.084;2023-04-24T23:42:24;50.00;;;22.53;;
68108;SDS011;54893;49.864;19.084;2023-04-24T23:47:25;49.80;;;23.30;;
68108;SDS011;54893;49.864;19.084;2023-04-24T23:52:25;42.33;;;18.30;;
68108;SDS011;54893;49.864;19.084;2023-04-24T23:57:25;63.03;;;28.07;;
